Langley, Virginia
Current Conditions -  °F | °C
As of 9:58 PM on Thursday 18 Dec 2014 (Local Time) from KLFI Reporting Station
Broken Clouds Broken Clouds  
Wind Chill: 27°   Ceiling: 10000
Heat Index: 34°   Visibility: 10mi
Dew Point: 28°   Wind: 8mph
Humidity: 79%   Direction: 360°N
Pressure: 30.12"   Gusts: NA
Location:  37.0868°N, 76.3631°W
Report Text: KLFI 190258Z AUTO 36007KT 10SM BKN100 BKN140 01/M02 A3012 RMK AO2 CIG 100 RWY8 SLPNO T00091023 50002
Loading
Personal Weather Stations






























Interactive Weather Map New forecast layout! Learn more

10-Day Weather Forecast

Advertisements
Track Severe Weather on mobile